sensor_id;sensor_type;location;lat;lon;timestamp;temperature;humidity
6518;DHT22;3292;48.944;9.240;2023-05-07T00:01:25;14.50;99.90
6518;DHT22;3292;48.944;9.240;2023-05-07T00:03:52;14.50;99.90
6518;DHT22;3292;48.944;9.240;2023-05-07T00:06:19;14.50;99.90
6518;DHT22;3292;48.944;9.240;2023-05-07T00:08:46;14.50;99.90
6518;DHT22;3292;48.944;9.240;2023-05-07T00:11:12;14.60;99.90
6518;DHT22;3292;48.944;9.240;2023-05-07T00:13:41;14.60;99.90
6518;DHT22;3292;48.944;9.240;2023-05-07T00:16:08;14.60;99.90
6518;DHT22;3292;48.944;9.240;2023-05-07T00:18:35;14.60;99.90
6518;DHT22;3292;48.944;9.240;2023-05-07T00:21:01;14.60;99.90
6518;DHT22;3292;48.944;9.240;2023-05-07T00:23:28;14.50;99.90
6518;DHT22;3292;48.944;9.240;2023-05-07T00:25:56;14.40;99.90
6518;DHT22;3292;48.944;9.240;2023-05-07T00:28:22;14.40;99.90
6518;DHT22;3292;48.944;9.240;2023-05-07T00:30:51;14.40;99.90
6518;DHT22;3292;48.944;9.240;2023-05-07T00:33:17;14.30;99.90
6518;DHT22;3292;48.944;9.240;2023-05-07T00:35:46;14.30;99.90
6518;DHT22;3292;48.944;9.240;2023-05-07T00:38:12;14.30;99.90
6518;DHT22;3292;48.944;9.240;2023-05-07T00:40:39;14.10;99.90
6518;DHT22;3292;48.944;9.240;2023-05-07T00:43:06;14.10;99.90
6518;DHT22;3292;48.944;9.240;2023-05-07T00:45:34;14.00;99.90
6518;DHT22;3292;48.944;9.240;2023-05-07T00:48:02;14.00;99.90
6518;DHT22;3292;48.944;9.240;2023-05-07T00:50:30;14.00;99.90
6518;DHT22;3292;48.944;9.240;2023-05-07T00:52:58;13.90;99.90
6518;DHT22;3292;48.944;9.240;2023-05-07T00:55:25;13.90;99.90
6518;DHT22;3292;48.944;9.240;2023-05-07T00:57:52;13.90;99.90
6518;DHT22;3292;48.944;9.240;2023-05-07T01:00:19;13.90;99.90
6518;DHT22;3292;48.944;9.240;2023-05-07T01:02:46;13.90;99.90
6518;DHT22;3292;48.944;9.240;2023-05-07T01:05:16;13.80;99.90
6518;DHT22;3292;48.944;9.240;2023-05-07T01:07:44;13.80;99.90
6518;DHT22;3292;48.944;9.240;2023-05-07T01:10:11;13.80;99.90
6518;DHT22;3292;48.944;9.240;2023-05-07T01:12:40;13.70;99.90
6518;DHT22;3292;48.944;9.240;2023-05-07T01:15:08;13.70;99.90
6518;DHT22;3292;48.944;9.240;2023-05-07T01:17:36;13.70;99.90
6518;DHT22;3292;48.944;9.240;2023-05-07T01:20:04;13.70;99.90
6518;DHT22;3292;48.944;9.240;2023-05-07T01:22:34;13.70;99.90
6518;DHT22;3292;48.944;9.240;2023-05-07T01:25:02;13.70;99.90
6518;DHT22;3292;48.944;9.240;2023-05-07T01:27:29;13.60;99.90
6518;DHT22;3292;48.944;9.240;2023-05-07T01:29:56;13.60;99.90
6518;DHT22;3292;48.944;9.240;2023-05-07T01:32:31;13.60;99.90
6518;DHT22;3292;48.944;9.240;2023-05-07T01:34:59;13.50;99.90
6518;DHT22;3292;48.944;9.240;2023-05-07T01:37:28;13.50;99.90
6518;DHT22;3292;48.944;9.240;2023-05-07T01:39:57;13.50;99.90
6518;DHT22;3292;48.944;9.240;2023-05-07T01:42:24;13.50;99.90
6518;DHT22;3292;48.944;9.240;2023-05-07T01:44:51;13.50;99.90
6518;DHT22;3292;48.944;9.240;2023-05-07T01:47:17;13.50;99.90
6518;DHT22;3292;48.944;9.240;2023-05-07T01:49:45;13.40;99.90
6518;DHT22;3292;48.944;9.240;2023-05-07T01:52:13;13.40;99.90
6518;DHT22;3292;48.944;9.240;2023-05-07T01:54:40;13.40;99.90
6518;DHT22;3292;48.944;9.240;2023-05-07T01:57:08;13.40;99.90
6518;DHT22;3292;48.944;9.240;2023-05-07T01:59:35;13.40;99.90
6518;DHT22;3292;48.944;9.240;2023-05-07T02:02:02;13.40;99.90
6518;DHT22;3292;48.944;9.240;2023-05-07T02:04:29;13.40;99.90
6518;DHT22;3292;48.944;9.240;2023-05-07T02:06:55;13.40;99.90
6518;DHT22;3292;48.944;9.240;2023-05-07T02:09:23;13.40;99.90
6518;DHT22;3292;48.944;9.240;2023-05-07T02:11:50;13.40;99.90
6518;DHT22;3292;48.944;9.240;2023-05-07T02:14:18;13.30;99.90
6518;DHT22;3292;48.944;9.240;2023-05-07T02:16:45;13.30;99.90
6518;DHT22;3292;48.944;9.240;2023-05-07T02:19:12;13.30;99.90
6518;DHT22;3292;48.944;9.240;2023-05-07T02:21:39;13.30;99.90
6518;DHT22;3292;48.944;9.240;2023-05-07T02:24:06;13.30;99.90
6518;DHT22;3292;48.944;9.240;2023-05-07T02:26:33;13.30;99.90
6518;DHT22;3292;48.944;9.240;2023-05-07T02:28:59;13.30;99.90
6518;DHT22;3292;48.944;9.240;2023-05-07T02:31:28;13.30;99.90
6518;DHT22;3292;48.944;9.240;2023-05-07T02:33:54;13.30;99.90
6518;DHT22;3292;48.944;9.240;2023-05-07T02:36:21;13.30;99.90
6518;DHT22;3292;48.944;9.240;2023-05-07T02:38:48;13.20;99.90
6518;DHT22;3292;48.944;9.240;2023-05-07T02:41:15;13.20;99.90
6518;DHT22;3292;48.944;9.240;2023-05-07T02:43:41;13.20;99.90
6518;DHT22;3292;48.944;9.240;2023-05-07T02:46:09;13.10;99.90
6518;DHT22;3292;48.944;9.240;2023-05-07T02:48:37;13.10;99.90
6518;DHT22;3292;48.944;9.240;2023-05-07T02:51:04;13.00;99.90
6518;DHT22;3292;48.944;9.240;2023-05-07T02:53:32;13.10;99.90
6518;DHT22;3292;48.944;9.240;2023-05-07T02:56:00;13.00;99.90
6518;DHT22;3292;48.944;9.240;2023-05-07T02:58:26;12.90;99.90
6518;DHT22;3292;48.944;9.240;2023-05-07T03:00:53;12.90;99.90
6518;DHT22;3292;48.944;9.240;2023-05-07T03:03:21;12.90;99.90
6518;DHT22;3292;48.944;9.240;2023-05-07T03:05:49;12.80;99.90
6518;DHT22;3292;48.944;9.240;2023-05-07T03:08:16;12.80;99.90
6518;DHT22;3292;48.944;9.240;2023-05-07T03:10:42;12.70;99.90
6518;DHT22;3292;48.944;9.240;2023-05-07T03:13:09;12.70;99.90
6518;DHT22;3292;48.944;9.240;2023-05-07T03:15:36;12.60;99.90
6518;DHT22;3292;48.944;9.240;2023-05-07T03:18:03;12.60;99.90
6518;DHT22;3292;48.944;9.240;2023-05-07T03:20:31;12.60;99.90
6518;DHT22;3292;48.944;9.240;2023-05-07T03:22:59;12.50;99.90
6518;DHT22;3292;48.944;9.240;2023-05-07T03:25:27;12.50;99.90
6518;DHT22;3292;48.944;9.240;2023-05-07T03:27:55;12.50;99.90
6518;DHT22;3292;48.944;9.240;2023-05-07T03:30:22;12.40;99.90
6518;DHT22;3292;48.944;9.240;2023-05-07T03:32:49;12.50;99.90
6518;DHT22;3292;48.944;9.240;2023-05-07T03:35:16;12.40;99.90
6518;DHT22;3292;48.944;9.240;2023-05-07T03:37:43;12.40;99.90
6518;DHT22;3292;48.944;9.240;2023-05-07T03:40:11;12.40;99.90
6518;DHT22;3292;48.944;9.240;2023-05-07T03:42:38;12.40;99.90
6518;DHT22;3292;48.944;9.240;2023-05-07T03:45:06;12.40;99.90
6518;DHT22;3292;48.944;9.240;2023-05-07T03:47:33;12.40;99.90
6518;DHT22;3292;48.944;9.240;2023-05-07T03:50:00;12.30;99.90
6518;DHT22;3292;48.944;9.240;2023-05-07T03:52:27;12.30;99.90
6518;DHT22;3292;48.944;9.240;2023-05-07T03:54:53;12.30;99.90
6518;DHT22;3292;48.944;9.240;2023-05-07T03:57:22;12.30;99.90
6518;DHT22;3292;48.944;9.240;2023-05-07T03:59:48;12.30;99.90
6518;DHT22;3292;48.944;9.240;2023-05-07T04:02:15;12.20;99.90
6518;DHT22;3292;48.944;9.240;2023-05-07T04:04:42;12.20;99.90
6518;DHT22;3292;48.944;9.240;2023-05-07T04:07:09;12.30;99.90
6518;DHT22;3292;48.944;9.240;2023-05-07T04:09:36;12.20;99.90
6518;DHT22;3292;48.944;9.240;2023-05-07T04:12:03;12.20;99.90
6518;DHT22;3292;48.944;9.240;2023-05-07T04:14:31;12.20;99.90
6518;DHT22;3292;48.944;9.240;2023-05-07T04:16:58;12.20;99.90
6518;DHT22;3292;48.944;9.240;2023-05-07T04:19:25;12.30;99.90
6518;DHT22;3292;48.944;9.240;2023-05-07T04:21:52;12.20;99.90
6518;DHT22;3292;48.944;9.240;2023-05-07T04:24:19;12.20;99.90
6518;DHT22;3292;48.944;9.240;2023-05-07T04:26:45;12.20;99.90
6518;DHT22;3292;48.944;9.240;2023-05-07T04:29:12;12.30;99.90
6518;DHT22;3292;48.944;9.240;2023-05-07T04:31:40;12.30;99.90
6518;DHT22;3292;48.944;9.240;2023-05-07T04:34:09;12.30;99.90
6518;DHT22;3292;48.944;9.240;2023-05-07T04:36:37;12.30;99.90
6518;DHT22;3292;48.944;9.240;2023-05-07T04:39:04;12.30;99.90
6518;DHT22;3292;48.944;9.240;2023-05-07T04:41:31;12.40;99.90
6518;DHT22;3292;48.944;9.240;2023-05-07T04:43:58;12.40;99.90
6518;DHT22;3292;48.944;9.240;2023-05-07T04:46:25;12.50;99.90
6518;DHT22;3292;48.944;9.240;2023-05-07T04:48:53;12.50;99.90
6518;DHT22;3292;48.944;9.240;2023-05-07T04:51:20;12.60;99.90
6518;DHT22;3292;48.944;9.240;2023-05-07T04:53:47;12.60;99.90
6518;DHT22;3292;48.944;9.240;2023-05-07T04:56:14;12.70;99.90
6518;DHT22;3292;48.944;9.240;2023-05-07T04:58:40;12.70;99.90
6518;DHT22;3292;48.944;9.240;2023-05-07T05:01:07;12.80;99.90
6518;DHT22;3292;48.944;9.240;2023-05-07T05:03:34;12.90;99.90
6518;DHT22;3292;48.944;9.240;2023-05-07T05:06:02;12.90;99.90
6518;DHT22;3292;48.944;9.240;2023-05-07T05:08:30;13.00;99.90
6518;DHT22;3292;48.944;9.240;2023-05-07T05:10:57;13.10;99.90
6518;DHT22;3292;48.944;9.240;2023-05-07T05:13:23;13.10;99.90
6518;DHT22;3292;48.944;9.240;2023-05-07T05:15:50;13.10;99.90
6518;DHT22;3292;48.944;9.240;2023-05-07T05:18:17;13.10;99.90
6518;DHT22;3292;48.944;9.240;2023-05-07T05:20:44;13.00;99.90
6518;DHT22;3292;48.944;9.240;2023-05-07T05:23:12;13.10;99.90
6518;DHT22;3292;48.944;9.240;2023-05-07T05:25:39;13.00;99.90
6518;DHT22;3292;48.944;9.240;2023-05-07T05:28:05;13.10;99.90
6518;DHT22;3292;48.944;9.240;2023-05-07T05:30:32;13.10;99.90
6518;DHT22;3292;48.944;9.240;2023-05-07T05:32:59;13.10;99.90
6518;DHT22;3292;48.944;9.240;2023-05-07T05:35:26;13.20;99.90
6518;DHT22;3292;48.944;9.240;2023-05-07T05:37:53;13.40;99.90
6518;DHT22;3292;48.944;9.240;2023-05-07T05:40:21;13.90;99.90
6518;DHT22;3292;48.944;9.240;2023-05-07T05:42:48;14.60;99.90
6518;DHT22;3292;48.944;9.240;2023-05-07T05:45:15;15.50;99.90
6518;DHT22;3292;48.944;9.240;2023-05-07T05:47:42;16.30;99.90
6518;DHT22;3292;48.944;9.240;2023-05-07T05:50:09;16.90;99.90
6518;DHT22;3292;48.944;9.240;2023-05-07T05:52:35;17.70;99.90
6518;DHT22;3292;48.944;9.240;2023-05-07T05:55:03;18.50;99.90
6518;DHT22;3292;48.944;9.240;2023-05-07T05:57:31;18.80;99.90
6518;DHT22;3292;48.944;9.240;2023-05-07T05:59:58;19.10;99.90
6518;DHT22;3292;48.944;9.240;2023-05-07T06:02:25;19.90;99.90
6518;DHT22;3292;48.944;9.240;2023-05-07T06:04:51;20.10;99.90
6518;DHT22;3292;48.944;9.240;2023-05-07T06:07:18;20.20;99.90
6518;DHT22;3292;48.944;9.240;2023-05-07T06:09:45;20.10;99.90
6518;DHT22;3292;48.944;9.240;2023-05-07T06:12:12;19.70;99.90
6518;DHT22;3292;48.944;9.240;2023-05-07T06:14:40;19.60;99.90
6518;DHT22;3292;48.944;9.240;2023-05-07T06:17:09;19.30;99.90
6518;DHT22;3292;48.944;9.240;2023-05-07T06:19:35;19.20;99.90
6518;DHT22;3292;48.944;9.240;2023-05-07T06:22:02;19.30;99.90
6518;DHT22;3292;48.944;9.240;2023-05-07T06:24:29;20.00;99.90
6518;DHT22;3292;48.944;9.240;2023-05-07T06:26:56;20.50;99.90
6518;DHT22;3292;48.944;9.240;2023-05-07T06:29:23;20.70;99.90
6518;DHT22;3292;48.944;9.240;2023-05-07T06:31:55;21.20;99.90
6518;DHT22;3292;48.944;9.240;2023-05-07T06:34:22;21.10;99.90
6518;DHT22;3292;48.944;9.240;2023-05-07T06:36:49;21.40;99.90
6518;DHT22;3292;48.944;9.240;2023-05-07T06:39:16;21.90;99.90
6518;DHT22;3292;48.944;9.240;2023-05-07T06:41:44;22.20;99.90
6518;DHT22;3292;48.944;9.240;2023-05-07T06:44:11;22.10;99.90
6518;DHT22;3292;48.944;9.240;2023-05-07T06:46:38;21.80;99.90
6518;DHT22;3292;48.944;9.240;2023-05-07T06:49:08;21.40;99.90
6518;DHT22;3292;48.944;9.240;2023-05-07T06:51:35;21.20;99.90
6518;DHT22;3292;48.944;9.240;2023-05-07T06:54:02;21.00;99.90
6518;DHT22;3292;48.944;9.240;2023-05-07T06:56:30;21.20;99.90
6518;DHT22;3292;48.944;9.240;2023-05-07T06:58:57;21.50;99.90
6518;DHT22;3292;48.944;9.240;2023-05-07T07:01:25;21.60;99.90
6518;DHT22;3292;48.944;9.240;2023-05-07T07:03:52;21.20;99.90
6518;DHT22;3292;48.944;9.240;2023-05-07T07:06:20;21.30;99.90
6518;DHT22;3292;48.944;9.240;2023-05-07T07:08:48;21.30;99.90
6518;DHT22;3292;48.944;9.240;2023-05-07T07:11:17;21.50;99.90
6518;DHT22;3292;48.944;9.240;2023-05-07T07:13:44;21.20;99.90
6518;DHT22;3292;48.944;9.240;2023-05-07T07:16:12;20.90;99.90
6518;DHT22;3292;48.944;9.240;2023-05-07T07:18:39;21.00;99.90
6518;DHT22;3292;48.944;9.240;2023-05-07T07:21:06;20.90;99.90
6518;DHT22;3292;48.944;9.240;2023-05-07T07:23:34;21.20;99.90
6518;DHT22;3292;48.944;9.240;2023-05-07T07:26:01;21.50;99.90
6518;DHT22;3292;48.944;9.240;2023-05-07T07:28:28;21.70;99.90
6518;DHT22;3292;48.944;9.240;2023-05-07T07:30:55;21.70;99.90
6518;DHT22;3292;48.944;9.240;2023-05-07T07:33:22;21.60;99.90
6518;DHT22;3292;48.944;9.240;2023-05-07T07:35:49;21.50;99.90
6518;DHT22;3292;48.944;9.240;2023-05-07T07:38:16;21.10;99.90
6518;DHT22;3292;48.944;9.240;2023-05-07T07:40:47;20.70;99.90
6518;DHT22;3292;48.944;9.240;2023-05-07T07:43:14;20.80;99.90
6518;DHT22;3292;48.944;9.240;2023-05-07T07:45:42;20.90;99.90
6518;DHT22;3292;48.944;9.240;2023-05-07T07:48:09;21.10;99.90
6518;DHT22;3292;48.944;9.240;2023-05-07T07:50:37;21.40;99.90
6518;DHT22;3292;48.944;9.240;2023-05-07T07:53:05;21.70;99.90
6518;DHT22;3292;48.944;9.240;2023-05-07T07:55:32;21.90;99.90
6518;DHT22;3292;48.944;9.240;2023-05-07T07:58:01;21.70;99.90
6518;DHT22;3292;48.944;9.240;2023-05-07T08:00:29;21.30;99.90
6518;DHT22;3292;48.944;9.240;2023-05-07T08:02:56;21.20;99.90
6518;DHT22;3292;48.944;9.240;2023-05-07T08:05:24;21.00;99.90
6518;DHT22;3292;48.944;9.240;2023-05-07T08:07:51;21.00;99.90
6518;DHT22;3292;48.944;9.240;2023-05-07T08:10:19;20.90;99.90
6518;DHT22;3292;48.944;9.240;2023-05-07T08:12:47;20.90;99.90
6518;DHT22;3292;48.944;9.240;2023-05-07T08:15:16;20.60;99.90
6518;DHT22;3292;48.944;9.240;2023-05-07T08:17:44;20.60;99.90
6518;DHT22;3292;48.944;9.240;2023-05-07T08:20:11;20.80;99.90
6518;DHT22;3292;48.944;9.240;2023-05-07T08:22:38;20.90;99.90
6518;DHT22;3292;48.944;9.240;2023-05-07T08:25:06;20.90;99.90
6518;DHT22;3292;48.944;9.240;2023-05-07T08:27:33;20.90;99.90
6518;DHT22;3292;48.944;9.240;2023-05-07T08:30:01;20.80;99.90
6518;DHT22;3292;48.944;9.240;2023-05-07T08:32:29;20.70;99.90
6518;DHT22;3292;48.944;9.240;2023-05-07T08:34:57;20.70;99.90
6518;DHT22;3292;48.944;9.240;2023-05-07T08:37:24;21.00;99.90
6518;DHT22;3292;48.944;9.240;2023-05-07T08:39:51;20.80;99.90
6518;DHT22;3292;48.944;9.240;2023-05-07T08:42:19;21.00;99.90
6518;DHT22;3292;48.944;9.240;2023-05-07T08:44:47;20.90;99.90
6518;DHT22;3292;48.944;9.240;2023-05-07T08:47:19;20.90;99.90
6518;DHT22;3292;48.944;9.240;2023-05-07T08:49:49;21.00;99.90
6518;DHT22;3292;48.944;9.240;2023-05-07T08:52:19;21.20;99.90
6518;DHT22;3292;48.944;9.240;2023-05-07T08:54:46;21.40;99.90
6518;DHT22;3292;48.944;9.240;2023-05-07T08:57:13;21.70;99.90
6518;DHT22;3292;48.944;9.240;2023-05-07T08:59:42;21.90;99.90
6518;DHT22;3292;48.944;9.240;2023-05-07T09:02:12;21.90;99.90
6518;DHT22;3292;48.944;9.240;2023-05-07T09:04:39;22.10;99.90
6518;DHT22;3292;48.944;9.240;2023-05-07T09:07:08;22.40;99.90
6518;DHT22;3292;48.944;9.240;2023-05-07T09:09:37;22.60;99.90
6518;DHT22;3292;48.944;9.240;2023-05-07T09:12:05;22.60;99.90
6518;DHT22;3292;48.944;9.240;2023-05-07T09:14:32;22.70;99.90
6518;DHT22;3292;48.944;9.240;2023-05-07T09:17:00;22.80;99.90
6518;DHT22;3292;48.944;9.240;2023-05-07T09:19:28;22.80;99.90
6518;DHT22;3292;48.944;9.240;2023-05-07T09:21:58;22.90;99.90
6518;DHT22;3292;48.944;9.240;2023-05-07T09:24:28;23.00;99.90
6518;DHT22;3292;48.944;9.240;2023-05-07T09:26:59;23.10;99.90
6518;DHT22;3292;48.944;9.240;2023-05-07T09:29:27;23.10;99.90
6518;DHT22;3292;48.944;9.240;2023-05-07T09:31:56;23.10;99.90
6518;DHT22;3292;48.944;9.240;2023-05-07T09:34:23;23.10;99.90
6518;DHT22;3292;48.944;9.240;2023-05-07T09:36:50;23.20;99.90
6518;DHT22;3292;48.944;9.240;2023-05-07T09:39:18;23.40;99.90
6518;DHT22;3292;48.944;9.240;2023-05-07T09:41:47;23.50;99.90
6518;DHT22;3292;48.944;9.240;2023-05-07T09:44:17;23.50;99.90
6518;DHT22;3292;48.944;9.240;2023-05-07T09:46:48;23.60;99.90
6518;DHT22;3292;48.944;9.240;2023-05-07T09:49:21;23.80;99.90
6518;DHT22;3292;48.944;9.240;2023-05-07T09:51:50;23.90;99.90
6518;DHT22;3292;48.944;9.240;2023-05-07T09:54:18;23.80;99.90
6518;DHT22;3292;48.944;9.240;2023-05-07T09:56:48;24.10;99.90
6518;DHT22;3292;48.944;9.240;2023-05-07T09:59:17;24.20;99.90
6518;DHT22;3292;48.944;9.240;2023-05-07T10:01:44;24.50;99.90
6518;DHT22;3292;48.944;9.240;2023-05-07T10:04:12;25.00;99.90
6518;DHT22;3292;48.944;9.240;2023-05-07T10:06:39;25.00;99.90
6518;DHT22;3292;48.944;9.240;2023-05-07T10:09:07;25.10;99.90
6518;DHT22;3292;48.944;9.240;2023-05-07T10:11:38;25.10;99.90
6518;DHT22;3292;48.944;9.240;2023-05-07T10:14:08;25.30;99.90
6518;DHT22;3292;48.944;9.240;2023-05-07T10:16:36;25.40;99.90
6518;DHT22;3292;48.944;9.240;2023-05-07T10:19:04;25.80;99.90
6518;DHT22;3292;48.944;9.240;2023-05-07T10:21:35;25.90;99.90
6518;DHT22;3292;48.944;9.240;2023-05-07T10:24:05;26.00;99.90
6518;DHT22;3292;48.944;9.240;2023-05-07T10:26:35;26.10;99.90
6518;DHT22;3292;48.944;9.240;2023-05-07T10:29:07;26.10;99.90
6518;DHT22;3292;48.944;9.240;2023-05-07T10:31:51;26.10;99.90
6518;DHT22;3292;48.944;9.240;2023-05-07T10:34:23;26.30;99.90
6518;DHT22;3292;48.944;9.240;2023-05-07T10:36:52;26.30;99.90
6518;DHT22;3292;48.944;9.240;2023-05-07T10:39:20;26.30;99.90
6518;DHT22;3292;48.944;9.240;2023-05-07T10:41:47;25.70;99.90
6518;DHT22;3292;48.944;9.240;2023-05-07T10:44:25;25.60;99.90
6518;DHT22;3292;48.944;9.240;2023-05-07T10:47:12;25.70;99.90
6518;DHT22;3292;48.944;9.240;2023-05-07T10:52:40;26.40;99.90
6518;DHT22;3292;48.944;9.240;2023-05-07T10:55:28;26.70;99.90
6518;DHT22;3292;48.944;9.240;2023-05-07T10:57:55;26.40;99.90
6518;DHT22;3292;48.944;9.240;2023-05-07T11:00:43;26.60;99.90
6518;DHT22;3292;48.944;9.240;2023-05-07T11:03:12;26.80;99.90
6518;DHT22;3292;48.944;9.240;2023-05-07T11:05:40;26.90;99.90
6518;DHT22;3292;48.944;9.240;2023-05-07T11:08:09;26.80;99.90
6518;DHT22;3292;48.944;9.240;2023-05-07T11:10:50;26.50;99.90
6518;DHT22;3292;48.944;9.240;2023-05-07T11:13:18;26.10;99.90
6518;DHT22;3292;48.944;9.240;2023-05-07T11:15:46;26.00;99.90
6518;DHT22;3292;48.944;9.240;2023-05-07T11:18:16;26.00;99.90
6518;DHT22;3292;48.944;9.240;2023-05-07T11:20:54;26.20;99.90
6518;DHT22;3292;48.944;9.240;2023-05-07T11:23:56;26.30;99.90
6518;DHT22;3292;48.944;9.240;2023-05-07T11:26:24;26.30;99.90
6518;DHT22;3292;48.944;9.240;2023-05-07T11:28:53;26.00;99.90
6518;DHT22;3292;48.944;9.240;2023-05-07T11:31:22;25.60;99.90
6518;DHT22;3292;48.944;9.240;2023-05-07T11:33:53;25.60;99.90
6518;DHT22;3292;48.944;9.240;2023-05-07T11:36:22;25.10;99.90
6518;DHT22;3292;48.944;9.240;2023-05-07T11:38:50;25.00;99.90
6518;DHT22;3292;48.944;9.240;2023-05-07T11:41:17;24.90;99.90
6518;DHT22;3292;48.944;9.240;2023-05-07T11:43:57;24.90;99.90
6518;DHT22;3292;48.944;9.240;2023-05-07T11:46:26;24.80;99.90
6518;DHT22;3292;48.944;9.240;2023-05-07T11:48:55;24.70;99.90
6518;DHT22;3292;48.944;9.240;2023-05-07T11:51:25;24.60;99.90
6518;DHT22;3292;48.944;9.240;2023-05-07T11:53:53;24.30;99.90
6518;DHT22;3292;48.944;9.240;2023-05-07T11:56:20;24.30;99.90
6518;DHT22;3292;48.944;9.240;2023-05-07T11:58:49;24.20;99.90
6518;DHT22;3292;48.944;9.240;2023-05-07T12:01:17;24.20;99.90
6518;DHT22;3292;48.944;9.240;2023-05-07T12:03:45;24.20;99.90
6518;DHT22;3292;48.944;9.240;2023-05-07T12:06:18;24.10;99.90
6518;DHT22;3292;48.944;9.240;2023-05-07T12:08:46;24.20;99.90
6518;DHT22;3292;48.944;9.240;2023-05-07T12:11:15;24.30;99.90
6518;DHT22;3292;48.944;9.240;2023-05-07T12:13:44;24.30;99.90
6518;DHT22;3292;48.944;9.240;2023-05-07T12:16:11;24.20;99.90
6518;DHT22;3292;48.944;9.240;2023-05-07T12:18:39;24.20;99.90
6518;DHT22;3292;48.944;9.240;2023-05-07T12:21:07;24.30;99.90
6518;DHT22;3292;48.944;9.240;2023-05-07T12:23:37;24.40;99.90
6518;DHT22;3292;48.944;9.240;2023-05-07T12:26:05;24.40;99.90
6518;DHT22;3292;48.944;9.240;2023-05-07T12:28:36;24.50;99.90
6518;DHT22;3292;48.944;9.240;2023-05-07T12:31:05;24.50;99.90
6518;DHT22;3292;48.944;9.240;2023-05-07T12:33:34;24.50;99.90
6518;DHT22;3292;48.944;9.240;2023-05-07T12:36:05;24.60;99.90
6518;DHT22;3292;48.944;9.240;2023-05-07T12:38:38;24.50;99.90
6518;DHT22;3292;48.944;9.240;2023-05-07T12:41:07;24.40;99.90
6518;DHT22;3292;48.944;9.240;2023-05-07T12:43:35;24.20;99.90
6518;DHT22;3292;48.944;9.240;2023-05-07T12:46:04;24.10;99.90
6518;DHT22;3292;48.944;9.240;2023-05-07T12:48:33;24.00;99.90
6518;DHT22;3292;48.944;9.240;2023-05-07T12:51:01;23.90;99.90
6518;DHT22;3292;48.944;9.240;2023-05-07T12:53:29;23.80;99.90
6518;DHT22;3292;48.944;9.240;2023-05-07T12:55:59;23.60;99.90
6518;DHT22;3292;48.944;9.240;2023-05-07T12:58:27;23.60;99.90
6518;DHT22;3292;48.944;9.240;2023-05-07T13:00:58;23.70;99.90
6518;DHT22;3292;48.944;9.240;2023-05-07T13:03:28;23.50;99.90
6518;DHT22;3292;48.944;9.240;2023-05-07T13:05:55;23.40;99.90
6518;DHT22;3292;48.944;9.240;2023-05-07T13:08:27;23.50;99.90
6518;DHT22;3292;48.944;9.240;2023-05-07T13:10:57;23.50;99.90
6518;DHT22;3292;48.944;9.240;2023-05-07T13:13:25;23.60;99.90
6518;DHT22;3292;48.944;9.240;2023-05-07T13:15:52;23.50;99.90
6518;DHT22;3292;48.944;9.240;2023-05-07T13:18:20;23.30;99.90
6518;DHT22;3292;48.944;9.240;2023-05-07T13:20:47;23.40;99.90
6518;DHT22;3292;48.944;9.240;2023-05-07T13:23:14;23.30;99.90
6518;DHT22;3292;48.944;9.240;2023-05-07T13:25:41;23.20;99.90
6518;DHT22;3292;48.944;9.240;2023-05-07T13:28:12;23.00;99.90
6518;DHT22;3292;48.944;9.240;2023-05-07T13:30:40;22.90;99.90
6518;DHT22;3292;48.944;9.240;2023-05-07T13:33:07;22.70;99.90
6518;DHT22;3292;48.944;9.240;2023-05-07T13:35:35;22.30;99.90
6518;DHT22;3292;48.944;9.240;2023-05-07T13:38:03;21.80;99.90
6518;DHT22;3292;48.944;9.240;2023-05-07T13:40:30;21.70;99.90
6518;DHT22;3292;48.944;9.240;2023-05-07T13:42:58;21.30;99.90
6518;DHT22;3292;48.944;9.240;2023-05-07T13:45:29;21.00;99.90
6518;DHT22;3292;48.944;9.240;2023-05-07T13:47:57;20.70;99.90
6518;DHT22;3292;48.944;9.240;2023-05-07T13:50:24;20.60;99.90
6518;DHT22;3292;48.944;9.240;2023-05-07T13:52:52;20.20;99.90
6518;DHT22;3292;48.944;9.240;2023-05-07T13:55:21;19.80;99.90
6518;DHT22;3292;48.944;9.240;2023-05-07T13:57:55;19.60;99.90
6518;DHT22;3292;48.944;9.240;2023-05-07T14:00:23;19.40;99.90
6518;DHT22;3292;48.944;9.240;2023-05-07T14:02:54;19.40;99.90
6518;DHT22;3292;48.944;9.240;2023-05-07T14:05:22;19.40;99.90
6518;DHT22;3292;48.944;9.240;2023-05-07T14:07:50;19.30;99.90
6518;DHT22;3292;48.944;9.240;2023-05-07T14:10:18;19.10;99.90
6518;DHT22;3292;48.944;9.240;2023-05-07T14:12:45;19.10;99.90
6518;DHT22;3292;48.944;9.240;2023-05-07T14:15:13;19.00;99.90
6518;DHT22;3292;48.944;9.240;2023-05-07T14:17:42;19.00;99.90
6518;DHT22;3292;48.944;9.240;2023-05-07T14:20:11;18.90;99.90
6518;DHT22;3292;48.944;9.240;2023-05-07T14:22:39;18.90;99.90
6518;DHT22;3292;48.944;9.240;2023-05-07T14:25:07;18.70;99.90
6518;DHT22;3292;48.944;9.240;2023-05-07T14:27:35;18.60;99.90
6518;DHT22;3292;48.944;9.240;2023-05-07T14:30:02;18.60;99.90
6518;DHT22;3292;48.944;9.240;2023-05-07T14:32:29;18.70;99.90
6518;DHT22;3292;48.944;9.240;2023-05-07T14:34:55;18.50;99.90
6518;DHT22;3292;48.944;9.240;2023-05-07T14:37:24;18.40;99.90
6518;DHT22;3292;48.944;9.240;2023-05-07T14:39:50;18.30;99.90
6518;DHT22;3292;48.944;9.240;2023-05-07T14:42:17;18.10;99.90
6518;DHT22;3292;48.944;9.240;2023-05-07T14:44:44;18.10;99.90
6518;DHT22;3292;48.944;9.240;2023-05-07T14:47:12;18.00;99.90
6518;DHT22;3292;48.944;9.240;2023-05-07T14:49:38;18.10;99.90
6518;DHT22;3292;48.944;9.240;2023-05-07T14:52:06;18.00;99.90
6518;DHT22;3292;48.944;9.240;2023-05-07T14:54:36;18.00;99.90
6518;DHT22;3292;48.944;9.240;2023-05-07T14:57:05;18.00;99.90
6518;DHT22;3292;48.944;9.240;2023-05-07T14:59:32;18.00;99.90
6518;DHT22;3292;48.944;9.240;2023-05-07T15:01:59;18.00;99.90
6518;DHT22;3292;48.944;9.240;2023-05-07T15:04:25;18.00;99.90
6518;DHT22;3292;48.944;9.240;2023-05-07T15:06:52;18.00;99.90
6518;DHT22;3292;48.944;9.240;2023-05-07T15:09:21;18.00;99.90
6518;DHT22;3292;48.944;9.240;2023-05-07T15:11:49;18.00;99.90
6518;DHT22;3292;48.944;9.240;2023-05-07T15:14:16;18.00;99.90
6518;DHT22;3292;48.944;9.240;2023-05-07T15:16:43;18.00;99.90
6518;DHT22;3292;48.944;9.240;2023-05-07T15:19:11;18.00;99.90
6518;DHT22;3292;48.944;9.240;2023-05-07T15:21:37;18.00;99.90
6518;DHT22;3292;48.944;9.240;2023-05-07T15:24:05;17.90;99.90
6518;DHT22;3292;48.944;9.240;2023-05-07T15:26:32;17.80;99.90
6518;DHT22;3292;48.944;9.240;2023-05-07T15:29:00;17.90;99.90
6518;DHT22;3292;48.944;9.240;2023-05-07T15:31:28;17.80;99.90
6518;DHT22;3292;48.944;9.240;2023-05-07T15:33:55;17.80;99.90
6518;DHT22;3292;48.944;9.240;2023-05-07T15:36:22;17.80;99.90
6518;DHT22;3292;48.944;9.240;2023-05-07T15:38:49;17.70;99.90
6518;DHT22;3292;48.944;9.240;2023-05-07T15:41:16;17.70;99.90
6518;DHT22;3292;48.944;9.240;2023-05-07T15:43:45;17.70;99.90
6518;DHT22;3292;48.944;9.240;2023-05-07T15:46:17;17.60;99.90
6518;DHT22;3292;48.944;9.240;2023-05-07T15:48:44;17.70;99.90
6518;DHT22;3292;48.944;9.240;2023-05-07T15:51:11;17.60;99.90
6518;DHT22;3292;48.944;9.240;2023-05-07T15:53:38;17.60;99.90
6518;DHT22;3292;48.944;9.240;2023-05-07T15:56:06;17.50;99.90
6518;DHT22;3292;48.944;9.240;2023-05-07T15:58:32;17.50;99.90
6518;DHT22;3292;48.944;9.240;2023-05-07T16:01:00;17.40;99.90
6518;DHT22;3292;48.944;9.240;2023-05-07T16:03:28;17.30;99.90
6518;DHT22;3292;48.944;9.240;2023-05-07T16:05:56;17.30;99.90
6518;DHT22;3292;48.944;9.240;2023-05-07T16:08:25;17.30;99.90
6518;DHT22;3292;48.944;9.240;2023-05-07T16:10:52;17.30;99.90